Mountain Home, ID (83647)

6:23 AM MST on January 21, 2017 (GMT -0700)
Cox Signs - Airbase Road | | Change Station

Elev 3137 ft 43.13 °N, 115.71 °W | Updated 4 seconds ago

Overcast
Overcast
31.3 °F
Feels Like 31 °F
N
1.1
Wind Variable Wind from NE

Today
High -- | Low -- °F
--% Chance of Precip.
Yesterday
High -- | Low -- °F
Precip. -- in
Pressure 29.40 in
Visibility 10.0 miles
Clouds Overcast 6500 ft
Windchill 31 °F
Dew Point 31 °F
Humidity 99%
Rainfall 0.00 in
Snow Depth Not available.
8:07 AM 5:41 PM
Waning Crescent, 35% visible
METAR KMUO 211258Z AUTO 13005KT 10SM OVC065 M01/M01 A2936 RMK AO2 SLP956 T10061006 FZRANO $
Pressure 29.40 in
Visibility 10.0 miles
Clouds Overcast 6500 ft
Windchill 31 °F
Dew Point 31 °F
Humidity 99%
Rainfall 0.00 in
Snow Depth Not available.
8:07 AM 5:41 PM
Waning Crescent, 35% visible
METAR KMUO 211258Z AUTO 13005KT 10SM OVC065 M01/M01 A2936 RMK AO2 SLP956 T10061006 FZRANO $

Get Your Daily Forecast Email!

Thanks for signing up!

Be on the lookout for a verification email in your inbox.

You'll start receiving the daily forecast at 8 AM.

×

10-Day Weather Forecast

Almanac

Astronomy

Jan. 21, 2017 Rise Set
Actual Time
Civil Twilight
Nautical Twilight
Astronomical Twilight
Moon
Length of Visible Light
Length of Day
Tomorrow will be .
, % of the Moon is Illuminated

Today's Extremes

State Highs State Lows

Community

WunderPhotos

Upload Photos

1,962,540 photos uploaded!

WunderBlog® & News

Nearby

Air Quality

  Air Quality AQ Index Pollutant
Not available.

Snow Depth

Station Depth Elevation

Earthquake Activity

City Distance Mag. Time & Date
Minimum magnitude displayed is 2.5.

Coastal Water Temperatures

Place Temperature

Stations

Nearby Weather Stations

Station Location Temp. Windchill Dew Point Humidity Wind Precip. Elev Updated Type
                   

Watches & Warnings

There are currently no watches in effect.